createdAt,value
2018-07-16T00:03:15.944Z,96982.18
2018-07-16T00:08:10.868Z,96974.38
2018-07-16T00:13:05.693Z,96980.33
2018-07-16T00:18:00.465Z,96977.20
2018-07-16T00:22:55.250Z,96967.11
2018-07-16T00:27:50.209Z,96967.14
2018-07-16T00:32:44.768Z,96953.88
2018-07-16T00:37:40.040Z,96958.16
2018-07-16T00:42:35.241Z,96959.34
2018-07-16T00:47:30.118Z,96960.34
2018-07-16T00:52:24.921Z,96959.19
2018-07-16T00:57:20.232Z,96952.69
2018-07-16T01:02:15.244Z,96945.89
2018-07-16T01:07:10.451Z,96950.54
2018-07-16T01:12:05.463Z,96955.55
2018-07-16T01:17:00.384Z,96958.84
2018-07-16T01:21:55.255Z,96950.06
2018-07-16T01:26:50.092Z,96944.24
2018-07-16T01:31:44.863Z,96942.24
2018-07-16T01:36:40.532Z,96938.09
2018-07-16T01:41:35.386Z,96936.28
2018-07-16T01:46:30.102Z,96937.11
2018-07-16T01:51:24.888Z,96937.13
2018-07-16T01:56:19.641Z,96941.88
2018-07-16T02:01:15.729Z,96948.68
2018-07-16T02:06:10.493Z,96947.03
2018-07-16T02:11:05.296Z,96947.20
2018-07-16T02:16:01.456Z,96946.19
2018-07-16T02:20:56.208Z,96952.19
2018-07-16T02:25:51.064Z,96957.81
2018-07-16T02:30:45.785Z,96950.84
2018-07-16T02:35:40.797Z,96948.36
2018-07-16T02:40:35.651Z,96945.17
2018-07-16T02:45:30.461Z,96951.02
2018-07-16T02:50:25.214Z,96944.61
2018-07-16T02:55:19.908Z,96943.92
2018-07-16T03:00:14.692Z,96945.23
2018-07-16T03:05:13.468Z,96957.53
2018-07-16T03:10:08.340Z,96951.56
2018-07-16T03:15:03.398Z,96960.89
2018-07-16T03:19:58.091Z,96960.80
2018-07-16T03:24:52.778Z,96966.30
2018-07-16T03:29:47.487Z,96957.22
2018-07-16T03:34:41.901Z,96954.48
2018-07-16T03:39:36.718Z,96958.49
2018-07-16T03:44:31.559Z,96954.85
2018-07-16T03:49:26.460Z,96956.82
2018-07-16T03:54:21.226Z,96965.73
2018-07-16T03:59:16.171Z,96959.34
2018-07-16T04:04:11.103Z,96972.75
2018-07-16T04:09:07.159Z,96972.66
2018-07-16T04:14:02.074Z,96974.34
2018-07-16T04:18:56.882Z,96971.20
2018-07-16T04:23:51.627Z,96978.36
2018-07-16T04:28:46.404Z,96977.97
2018-07-16T04:33:41.077Z,96976.67
2018-07-16T04:38:35.517Z,96977.69
2018-07-16T04:43:30.596Z,96984.53
2018-07-16T04:48:25.424Z,96984.44
2018-07-16T04:53:20.636Z,96992.73
2018-07-16T04:58:15.350Z,96989.08
2018-07-16T05:03:10.249Z,97001.54
2018-07-16T05:08:04.723Z,96997.86
2018-07-16T05:12:59.505Z,96991.73
2018-07-16T05:17:54.219Z,96996.70
2018-07-16T05:22:49.119Z,97002.67
2018-07-16T05:27:44.233Z,96996.68
2018-07-16T05:32:39.708Z,97004.62
2018-07-16T05:37:34.280Z,96992.12
2018-07-16T05:42:29.046Z,96975.34
2018-07-16T05:47:23.872Z,96976.98
2018-07-16T05:52:18.640Z,96974.81
2018-07-16T05:57:13.396Z,96971.36
2018-07-16T06:02:08.219Z,96972.05
2018-07-16T06:07:02.909Z,96970.24
2018-07-16T06:11:57.656Z,96962.58
2018-07-16T06:16:52.426Z,96965.02
2018-07-16T06:21:47.088Z,96973.05
2018-07-16T06:26:41.967Z,96957.15
2018-07-16T06:31:36.797Z,96952.80
2018-07-16T06:36:31.656Z,96951.65
2018-07-16T06:41:26.986Z,96954.64
2018-07-16T06:46:21.493Z,96952.19
2018-07-16T06:51:16.357Z,96944.57
2018-07-16T06:56:12.092Z,96943.50
2018-07-16T07:01:06.961Z,96944.16
2018-07-16T07:06:01.751Z,96937.63
2018-07-16T07:10:56.840Z,96931.01
2018-07-16T07:15:51.627Z,96924.84
2018-07-16T07:20:46.688Z,96923.74
2018-07-16T07:25:41.492Z,96923.11
2018-07-16T07:30:36.282Z,96915.66
2018-07-16T07:35:31.093Z,96909.09
2018-07-16T07:40:25.831Z,96907.53
2018-07-16T07:45:20.628Z,96895.72
2018-07-16T07:50:15.333Z,96898.89
2018-07-16T07:55:10.338Z,96888.17
2018-07-16T08:00:05.974Z,96874.96
2018-07-16T08:05:00.860Z,96870.32
2018-07-16T08:09:55.684Z,96867.05
2018-07-16T08:14:50.382Z,96864.15
2018-07-16T08:19:45.109Z,96856.97
2018-07-16T08:24:39.790Z,96852.68
2018-07-16T08:29:34.992Z,96846.97
2018-07-16T08:34:29.783Z,96845.97
2018-07-16T08:39:24.529Z,96841.42
2018-07-16T08:44:22.496Z,96839.63
2018-07-16T08:49:17.311Z,96834.73
2018-07-16T08:54:12.284Z,96834.38
2018-07-16T08:59:07.072Z,96831.41
2018-07-16T09:04:01.824Z,96830.27
2018-07-16T09:08:56.443Z,96832.20
2018-07-16T09:13:51.205Z,96825.46
2018-07-16T09:18:46.012Z,96824.42
2018-07-16T09:23:40.731Z,96824.20
2018-07-16T09:28:35.445Z,96819.77
2018-07-16T09:33:30.827Z,96819.13
2018-07-16T09:38:25.443Z,96821.63
2018-07-16T09:43:20.217Z,96815.34
2018-07-16T09:48:14.955Z,96810.91
2018-07-16T09:53:09.775Z,96813.53
2018-07-16T09:58:04.503Z,96810.94
2018-07-16T10:02:59.211Z,96808.47
2018-07-16T10:07:53.891Z,96799.71
2018-07-16T10:12:48.571Z,96787.97
2018-07-16T10:17:43.308Z,96783.47
2018-07-16T10:22:38.014Z,96773.73
2018-07-16T10:27:32.814Z,96771.68
2018-07-16T10:32:27.547Z,96773.87
2018-07-16T10:37:22.205Z,96759.23
2018-07-16T10:42:16.970Z,96752.27
2018-07-16T10:47:12.485Z,96751.98
2018-07-16T10:52:07.316Z,96742.05
2018-07-16T10:57:02.041Z,96733.40
2018-07-16T11:01:56.802Z,96723.23
2018-07-16T11:06:51.491Z,96716.30
2018-07-16T11:11:46.205Z,96712.72
2018-07-16T11:16:41.062Z,96716.67
2018-07-16T11:21:35.722Z,96709.97
2018-07-16T11:26:30.407Z,96715.48
2018-07-16T11:31:25.179Z,96709.08
2018-07-16T11:36:19.787Z,96702.88
2018-07-16T11:41:14.484Z,96694.23
2018-07-16T11:46:09.274Z,96687.22
2018-07-16T11:51:04.216Z,96678.72
2018-07-16T11:55:58.939Z,96666.28
2018-07-16T12:00:53.675Z,96663.63
2018-07-16T12:05:48.336Z,96654.48
2018-07-16T12:10:43.063Z,96645.47
2018-07-16T12:15:37.825Z,96633.06
2018-07-16T12:20:32.617Z,96622.41
2018-07-16T12:25:26.935Z,96612.98
2018-07-16T12:30:21.625Z,96615.44
2018-07-16T12:35:16.385Z,96606.77
2018-07-16T12:40:11.085Z,96600.52
2018-07-16T12:45:05.964Z,96600.92
2018-07-16T12:50:00.816Z,96601.81
2018-07-16T12:54:55.507Z,96590.75
2018-07-16T12:59:50.426Z,96585.17
2018-07-16T13:04:45.296Z,96590.57
2018-07-16T13:09:39.995Z,96588.83
2018-07-16T13:14:34.708Z,96589.91
2018-07-16T13:19:29.407Z,96577.45
2018-07-16T13:24:24.180Z,96573.77
2018-07-16T13:29:18.767Z,96570.00
2018-07-16T13:34:13.485Z,96575.10
2018-07-16T13:39:10.138Z,96575.11
2018-07-16T13:44:04.902Z,96564.46
2018-07-16T13:48:59.511Z,96570.30
2018-07-16T13:53:55.610Z,96563.36
2018-07-16T13:58:50.719Z,96562.58
2018-07-16T14:03:45.459Z,96565.46
2018-07-16T14:08:40.120Z,96555.48
2018-07-16T14:13:34.759Z,96544.06
2018-07-16T14:18:29.738Z,96545.18
2018-07-16T14:23:24.362Z,96544.41
2018-07-16T14:28:19.048Z,96542.25
2018-07-16T14:33:13.720Z,96543.05
2018-07-16T14:38:08.519Z,96541.82
2018-07-16T14:43:03.685Z,96541.50
2018-07-16T14:47:58.311Z,96539.85
2018-07-16T14:52:53.017Z,96534.63
2018-07-16T14:57:47.732Z,96527.98
2018-07-16T15:02:42.424Z,96525.52
2018-07-16T15:07:37.249Z,96516.75
2018-07-16T15:12:31.916Z,96507.09
2018-07-16T15:17:26.640Z,96506.45
2018-07-16T15:22:21.362Z,96504.75
2018-07-16T15:27:15.991Z,96501.24
2018-07-16T15:32:10.750Z,96493.73
2018-07-16T15:37:05.487Z,96493.95
2018-07-16T15:42:00.221Z,96481.77
2018-07-16T15:46:54.881Z,96483.17
2018-07-16T15:51:49.511Z,96478.48
2018-07-16T15:56:44.179Z,96475.27
2018-07-16T16:01:38.880Z,96473.48
2018-07-16T16:06:33.638Z,96465.50
2018-07-16T16:11:28.263Z,96464.05
2018-07-16T16:16:22.999Z,96466.84
2018-07-16T16:21:19.200Z,96458.16
2018-07-16T16:26:13.987Z,96459.89
2018-07-16T16:31:08.751Z,96463.23
2018-07-16T16:36:03.548Z,96464.11
2018-07-16T16:40:58.288Z,96474.64
2018-07-16T16:45:53.663Z,96472.67
2018-07-16T16:50:48.296Z,96468.05
2018-07-16T16:55:43.108Z,96470.90
2018-07-16T17:00:37.822Z,96469.35
2018-07-16T17:05:32.897Z,96470.48
2018-07-16T17:10:27.660Z,96473.76
2018-07-16T17:15:22.350Z,96469.11
2018-07-16T17:20:17.010Z,96477.38
2018-07-16T17:25:11.688Z,96482.44
2018-07-16T17:30:06.494Z,96471.86
2018-07-16T17:35:01.155Z,96482.42
2018-07-16T17:39:55.805Z,96486.53
2018-07-16T17:44:51.422Z,96484.03
2018-07-16T17:49:46.288Z,96487.64
2018-07-16T17:54:40.946Z,96493.31
2018-07-16T17:59:35.691Z,96499.57
2018-07-16T18:04:30.431Z,96507.64
2018-07-16T18:09:25.088Z,96519.46
2018-07-16T18:14:19.687Z,96523.28
2018-07-16T18:19:14.363Z,96531.03
2018-07-16T18:24:08.769Z,96538.11
2018-07-16T18:29:03.550Z,96546.02
2018-07-16T18:33:58.607Z,96543.33
2018-07-16T18:38:53.352Z,96563.22
2018-07-16T18:43:48.240Z,96577.36
2018-07-16T18:48:42.961Z,96583.31
2018-07-16T18:53:37.647Z,96582.11
2018-07-16T18:58:34.345Z,96585.83
2018-07-16T19:03:29.355Z,96593.28
2018-07-16T19:08:24.104Z,96591.01
2018-07-16T19:13:18.902Z,96599.91
2018-07-16T19:18:13.771Z,96610.67
2018-07-16T19:23:08.553Z,96613.00
2018-07-16T19:28:03.422Z,96615.69
2018-07-16T19:32:58.272Z,96623.89
2018-07-16T19:37:54.579Z,96622.20
2018-07-16T19:42:49.202Z,96636.12
2018-07-16T19:47:44.357Z,96650.06
2018-07-16T19:52:39.063Z,96655.00
2018-07-16T19:57:34.066Z,96661.69
2018-07-16T20:02:29.019Z,96668.08
2018-07-16T20:07:23.948Z,96677.51
2018-07-16T20:12:28.102Z,96684.59
2018-07-16T20:17:22.775Z,96686.00
2018-07-16T20:22:17.528Z,96695.02
2018-07-16T20:27:12.160Z,96696.42
2018-07-16T20:32:06.961Z,96700.93
2018-07-16T20:37:01.852Z,96703.43
2018-07-16T20:41:56.480Z,96710.38
2018-07-16T20:46:51.153Z,96711.17
2018-07-16T20:51:45.879Z,96715.52
2018-07-16T20:56:40.758Z,96721.83
2018-07-16T21:01:35.446Z,96730.77
2018-07-16T21:06:30.154Z,96729.70
2018-07-16T21:11:24.839Z,96721.73
2018-07-16T21:16:19.548Z,96727.65
2018-07-16T21:21:14.200Z,96738.30
2018-07-16T21:26:08.969Z,96744.80
2018-07-16T21:31:03.683Z,96751.98
2018-07-16T21:35:58.816Z,96742.56
2018-07-16T21:40:53.381Z,96748.98
2018-07-16T21:45:48.011Z,96754.90
2018-07-16T21:50:42.593Z,96764.92
2018-07-16T21:55:37.260Z,96766.69
2018-07-16T22:00:32.482Z,96768.53
2018-07-16T22:05:28.194Z,96774.84
2018-07-16T22:10:23.428Z,96781.92
2018-07-16T22:15:25.196Z,96783.89
2018-07-16T22:20:19.979Z,96784.98
2018-07-16T22:25:14.835Z,96789.45
2018-07-16T22:30:09.555Z,96796.49
2018-07-16T22:35:04.537Z,96800.30
2018-07-16T22:39:59.128Z,96803.64
2018-07-16T22:44:53.892Z,96814.25
2018-07-16T22:49:48.529Z,96819.47
2018-07-16T22:54:43.126Z,96818.73
2018-07-16T22:59:37.473Z,96821.92
2018-07-16T23:04:32.152Z,96824.14
2018-07-16T23:09:26.760Z,96830.73
2018-07-16T23:14:21.725Z,96839.55
2018-07-16T23:19:16.323Z,96835.87
2018-07-16T23:24:11.079Z,96840.03
2018-07-16T23:29:05.655Z,96850.47
2018-07-16T23:34:00.154Z,96852.18
2018-07-16T23:38:54.941Z,96861.00
2018-07-16T23:43:49.614Z,96857.30
2018-07-16T23:48:44.403Z,96855.77
2018-07-16T23:53:38.971Z,96852.33
2018-07-16T23:58:33.975Z,96851.58
